Time;durP1;ratioP1;P1;durP2;ratioP2;P2;SDS_P1;SDS_P2;PMS_P1;PMS_P2;Temp;Humidity;BMP_temperature;BMP_pressure;BME280_temperature;BME280_humidity;BME280_pressure;Samples;Min_cycle;Max_cycle;Signal;HPM_P1;HPM_P2
2022/02/26 00:01:15;;;;;;;24.42;4.93;;;3.90;99.90;;;;;;5069756;28;20548;-56
2022/02/26 00:03:41;;;;;;;31.60;6.13;;;3.80;99.90;;;;;;5069411;28;20094;-55
2022/02/26 00:06:07;;;;;;;28.42;6.07;;;3.80;99.90;;;;;;5069411;28;20081;-54
2022/02/26 00:08:32;;;;;;;25.92;5.55;;;3.80;99.90;;;;;;5069565;28;20025;-53
2022/02/26 00:10:58;;;;;;;23.60;5.10;;;3.80;99.90;;;;;;5070079;28;20099;-55
2022/02/26 00:13:24;;;;;;;20.55;4.68;;;3.80;99.90;;;;;;5051191;28;20020;-52
2022/02/26 00:15:50;;;;;;;27.60;4.72;;;3.80;99.90;;;;;;5032048;28;20507;-53
2022/02/26 00:18:15;;;;;;;27.75;5.63;;;3.70;99.90;;;;;;5069066;28;20159;-54
2022/02/26 00:20:41;;;;;;;21.08;5.97;;;3.70;99.90;;;;;;5069311;28;20029;-55
2022/02/26 00:23:07;;;;;;;26.15;5.53;;;3.70;99.90;;;;;;5069089;28;20151;-52
2022/02/26 00:25:33;;;;;;;17.38;4.68;;;3.70;99.90;;;;;;5070104;28;20565;-54
2022/02/26 00:27:58;;;;;;;22.88;5.35;;;3.70;99.90;;;;;;5069659;28;20024;-53
2022/02/26 00:30:24;;;;;;;30.17;6.25;;;3.70;99.90;;;;;;5069451;28;20454;-54
2022/02/26 00:32:50;;;;;;;31.40;5.78;;;3.70;99.90;;;;;;5069349;28;20028;-56
2022/02/26 00:35:15;;;;;;;27.23;6.20;;;3.70;99.90;;;;;;5068271;28;20046;-55
2022/02/26 00:37:41;;;;;;;29.48;5.00;;;3.70;99.90;;;;;;5069133;28;20025;-55
2022/02/26 00:40:07;;;;;;;26.75;6.50;;;3.70;99.90;;;;;;5069032;28;20024;-54
2022/02/26 00:42:33;;;;;;;18.77;5.80;;;3.70;99.90;;;;;;5050789;28;20037;-52
2022/02/26 00:44:59;;;;;;;21.13;5.10;;;3.70;99.90;;;;;;5069009;28;20039;-51
2022/02/26 00:47:25;;;;;;;18.35;4.72;;;3.60;99.90;;;;;;5068826;28;20024;-53
2022/02/26 00:49:51;;;;;;;23.50;4.75;;;3.60;99.90;;;;;;5068713;28;20445;-56
2022/02/26 00:52:29;;;;;;;22.83;4.40;;;3.60;99.90;;;;;;5068430;28;20369;-51
2022/02/26 00:54:55;;;;;;;23.77;4.47;;;3.60;99.90;;;;;;5067326;28;20387;-54
2022/02/26 00:57:21;;;;;;;23.65;5.05;;;3.60;99.90;;;;;;5044010;28;20036;-52
2022/02/26 00:59:47;;;;;;;23.40;5.22;;;3.50;99.90;;;;;;5069470;28;20028;-54
2022/02/26 01:02:13;;;;;;;24.98;4.68;;;3.50;99.90;;;;;;5065149;28;20444;-56
2022/02/26 01:04:40;;;;;;;20.08;5.55;;;3.50;99.90;;;;;;5064943;28;20040;-56
2022/02/26 01:07:14;;;;;;;24.67;6.13;;;3.50;99.90;;;;;;5069284;28;20569;-54
2022/02/26 01:09:40;;;;;;;20.23;4.75;;;3.40;99.90;;;;;;5066143;28;20024;-52
2022/02/26 01:12:07;;;;;;;27.00;5.55;;;3.40;99.90;;;;;;5069070;28;20112;-52
2022/02/26 01:14:34;;;;;;;25.27;4.85;;;3.40;99.90;;;;;;5069051;28;20025;-56
2022/02/26 01:17:01;;;;;;;28.75;5.28;;;3.40;99.90;;;;;;5060601;28;20043;-53
2022/02/26 01:19:28;;;;;;;26.70;6.63;;;3.40;99.90;;;;;;5068427;28;20523;-55
2022/02/26 01:21:53;;;;;;;26.33;5.55;;;3.40;99.90;;;;;;5068566;28;20036;-53
2022/02/26 01:24:19;;;;;;;22.42;4.82;;;3.40;99.90;;;;;;5050633;28;20485;-55
2022/02/26 01:26:45;;;;;;;31.30;4.53;;;3.30;99.90;;;;;;5068364;28;20023;-54
2022/02/26 01:29:11;;;;;;;22.25;5.43;;;3.30;99.90;;;;;;5069111;28;20079;-54
2022/02/26 01:31:36;;;;;;;24.88;4.47;;;3.20;99.90;;;;;;5069149;28;20029;-54
2022/02/26 01:34:04;;;;;;;26.83;4.82;;;3.20;99.90;;;;;;5068762;28;20558;-50
2022/02/26 01:36:30;;;;;;;23.98;4.50;;;3.20;99.90;;;;;;5068672;28;20119;-53
2022/02/26 01:38:56;;;;;;;23.60;4.45;;;3.10;99.90;;;;;;5069505;28;20033;-54
2022/02/26 01:41:22;;;;;;;20.60;5.47;;;3.10;99.90;;;;;;5050913;28;20386;-56
2022/02/26 01:43:48;;;;;;;25.65;4.72;;;3.10;99.90;;;;;;5068718;28;20048;-52
2022/02/26 01:46:14;;;;;;;23.95;5.70;;;3.10;99.90;;;;;;5068700;28;20025;-52
2022/02/26 01:48:40;;;;;;;23.55;5.82;;;3.10;99.90;;;;;;5068737;28;20453;-55
2022/02/26 01:51:08;;;;;;;21.88;4.70;;;3.10;99.90;;;;;;5068583;28;20035;-55
2022/02/26 01:53:35;;;;;;;19.02;4.55;;;3.00;99.90;;;;;;5050434;28;20571;-53
2022/02/26 01:56:03;;;;;;;20.17;4.75;;;3.00;99.90;;;;;;5067646;28;20504;-56
2022/02/26 01:58:29;;;;;;;23.45;5.95;;;3.00;99.90;;;;;;5066778;28;20064;-51
2022/02/26 02:00:55;;;;;;;28.48;5.47;;;2.90;99.90;;;;;;5067022;28;20226;-53
2022/02/26 02:03:20;;;;;;;22.45;5.78;;;2.90;99.90;;;;;;5069599;28;20024;-55
2022/02/26 02:05:46;;;;;;;32.85;5.82;;;2.90;99.90;;;;;;5053737;28;20060;-55
2022/02/26 02:08:12;;;;;;;37.45;7.10;;;2.90;99.90;;;;;;5072142;28;20020;-50
2022/02/26 02:10:40;;;;;;;26.35;5.80;;;2.90;99.90;;;;;;5072087;28;20021;-52
2022/02/26 02:13:07;;;;;;;19.70;4.65;;;2.80;99.90;;;;;;5071897;28;20020;-51
2022/02/26 02:15:37;;;;;;;27.63;5.82;;;2.80;99.90;;;;;;5072079;28;20032;-51
2022/02/26 02:18:04;;;;;;;23.33;5.50;;;2.80;99.90;;;;;;5072056;28;20557;-55
2022/02/26 02:20:30;;;;;;;21.60;4.70;;;2.80;99.90;;;;;;5071787;28;20070;-53
2022/02/26 02:22:56;;;;;;;28.30;5.15;;;2.80;99.90;;;;;;5071563;28;20404;-51
2022/02/26 02:25:28;;;;;;;22.58;4.80;;;2.70;99.90;;;;;;5053629;28;20025;-55
2022/02/26 02:27:55;;;;;;;29.75;5.63;;;2.70;99.90;;;;;;5064060;28;20032;-56
2022/02/26 02:30:21;;;;;;;14.23;3.88;;;2.70;99.90;;;;;;5071753;28;20024;-52
2022/02/26 02:32:47;;;;;;;28.05;6.32;;;2.60;99.90;;;;;;5071699;28;20020;-54
2022/02/26 02:35:27;;;;;;;19.35;5.00;;;2.60;99.90;;;;;;5071640;28;20032;-51
2022/02/26 02:37:54;;;;;;;29.58;4.45;;;2.50;99.90;;;;;;5071748;28;20050;-56
2022/02/26 02:40:20;;;;;;;19.90;5.20;;;2.60;99.90;;;;;;5071855;28;20021;-51
2022/02/26 02:42:46;;;;;;;20.13;5.38;;;2.50;99.90;;;;;;5071125;28;20032;-55
2022/02/26 02:45:12;;;;;;;28.10;5.28;;;2.50;99.90;;;;;;5071745;28;20025;-53
2022/02/26 02:47:38;;;;;;;33.45;6.15;;;2.50;99.90;;;;;;5071143;28;20082;-53
2022/02/26 02:50:05;;;;;;;21.65;3.70;;;2.50;99.90;;;;;;5071082;28;20028;-55
2022/02/26 02:52:30;;;;;;;24.75;6.85;;;2.50;99.90;;;;;;5070835;28;20444;-49
2022/02/26 02:54:56;;;;;;;19.75;4.70;;;2.40;99.90;;;;;;5071172;28;20111;-56
2022/02/26 02:57:22;;;;;;;26.73;5.57;;;2.40;99.90;;;;;;5071617;28;20028;-51
2022/02/26 02:59:47;;;;;;;22.08;5.30;;;2.40;99.90;;;;;;5071559;28;20500;-52
2022/02/26 03:02:13;;;;;;;28.45;5.00;;;2.40;99.90;;;;;;5070598;28;20079;-53
2022/02/26 03:04:38;;;;;;;21.38;4.13;;;2.40;99.90;;;;;;5071044;28;20048;-53
2022/02/26 03:07:04;;;;;;;24.15;5.05;;;2.40;99.90;;;;;;5071143;28;20024;-51
2022/02/26 03:09:29;;;;;;;17.98;3.97;;;2.40;99.90;;;;;;5070832;28;20021;-53
2022/02/26 03:11:55;;;;;;;25.30;4.10;;;2.40;99.90;;;;;;5070521;28;20063;-54
2022/02/26 03:14:21;;;;;;;35.50;5.40;;;2.40;99.90;;;;;;5071176;28;20051;-54
2022/02/26 03:16:46;;;;;;;20.10;3.80;;;2.40;99.90;;;;;;5070679;28;20466;-56
2022/02/26 03:19:12;;;;;;;26.83;5.78;;;2.40;99.90;;;;;;5070574;28;20028;-50
2022/02/26 03:21:39;;;;;;;29.55;5.47;;;2.30;99.90;;;;;;5070861;28;20512;-51
2022/02/26 03:24:06;;;;;;;28.33;5.28;;;2.30;99.90;;;;;;5070802;28;20048;-54
2022/02/26 03:26:33;;;;;;;20.13;4.80;;;2.30;99.90;;;;;;5070585;28;20052;-51
2022/02/26 03:28:59;;;;;;;31.52;5.68;;;2.30;99.90;;;;;;5070911;28;20095;-51
2022/02/26 03:31:24;;;;;;;24.10;5.32;;;2.20;99.90;;;;;;5070748;28;20128;-53
2022/02/26 03:33:50;;;;;;;27.58;5.55;;;2.20;99.90;;;;;;5070435;28;20125;-54
2022/02/26 03:36:15;;;;;;;22.52;4.55;;;2.20;99.90;;;;;;5070238;28;20100;-51
2022/02/26 03:38:42;;;;;;;16.77;4.05;;;2.20;99.90;;;;;;5070868;28;20082;-49
2022/02/26 03:41:10;;;;;;;16.80;3.70;;;2.10;99.90;;;;;;5070308;28;20032;-56
2022/02/26 03:43:36;;;;;;;25.02;5.20;;;2.10;99.90;;;;;;5070062;28;20025;-54
2022/02/26 03:46:01;;;;;;;20.77;3.90;;;2.00;99.90;;;;;;5070082;28;20065;-55
2022/02/26 03:48:27;;;;;;;19.35;4.50;;;2.00;99.90;;;;;;5069492;28;20032;-54
2022/02/26 03:50:52;;;;;;;14.05;3.63;;;2.00;99.90;;;;;;5051993;28;20013;-52
2022/02/26 03:53:18;;;;;;;22.00;5.45;;;1.90;99.90;;;;;;5069893;28;20629;-56
2022/02/26 03:55:43;;;;;;;19.92;4.97;;;1.90;99.90;;;;;;5069774;28;20033;-51
2022/02/26 03:58:09;;;;;;;18.65;4.05;;;1.80;99.90;;;;;;5069909;28;20580;-49
2022/02/26 04:00:35;;;;;;;20.08;4.60;;;1.80;99.90;;;;;;5051893;28;20024;-53
2022/02/26 04:03:00;;;;;;;22.52;5.57;;;1.80;99.90;;;;;;5069549;28;20024;-51
2022/02/26 04:05:26;;;;;;;16.55;4.32;;;1.80;99.90;;;;;;5069437;28;20039;-53
2022/02/26 04:07:51;;;;;;;24.05;4.13;;;1.80;99.90;;;;;;5069873;28;20032;-53
2022/02/26 04:10:17;;;;;;;22.10;4.25;;;1.70;99.90;;;;;;5069788;28;20462;-50
2022/02/26 04:12:42;;;;;;;23.52;3.97;;;1.70;99.90;;;;;;5069581;28;20447;-51
2022/02/26 04:15:08;;;;;;;14.32;4.72;;;1.70;99.90;;;;;;5069916;28;20037;-54
2022/02/26 04:17:34;;;;;;;21.85;4.20;;;1.70;99.90;;;;;;5069635;28;20531;-54
2022/02/26 04:20:00;;;;;;;15.60;3.97;;;1.70;99.90;;;;;;5069320;28;20035;-51
2022/02/26 04:22:25;;;;;;;21.50;4.25;;;1.60;99.90;;;;;;5069421;28;20020;-52
2022/02/26 04:24:51;;;;;;;27.58;4.82;;;1.60;99.90;;;;;;5069139;28;20021;-52
2022/02/26 04:27:17;;;;;;;21.42;5.03;;;1.50;99.90;;;;;;5069455;28;20031;-54
2022/02/26 04:29:42;;;;;;;19.13;5.50;;;1.50;99.90;;;;;;5069407;28;20028;-51
2022/02/26 04:32:08;;;;;;;15.77;3.60;;;1.50;99.90;;;;;;5069118;28;20111;-54
2022/02/26 04:34:34;;;;;;;17.40;4.05;;;1.50;99.90;;;;;;5069169;28;20032;-51
2022/02/26 04:36:59;;;;;;;20.45;4.55;;;1.40;99.90;;;;;;5068397;28;20028;-54
2022/02/26 04:39:25;;;;;;;15.88;3.78;;;1.40;99.90;;;;;;5069520;28;20114;-54
2022/02/26 04:41:51;;;;;;;21.67;4.40;;;1.40;99.90;;;;;;5069465;28;20029;-50
2022/02/26 04:44:16;;;;;;;16.02;4.03;;;1.40;99.90;;;;;;5051265;28;20031;-52
2022/02/26 04:46:42;;;;;;;26.58;4.90;;;1.30;99.90;;;;;;5050895;28;20048;-50
2022/02/26 04:49:07;;;;;;;18.30;3.80;;;1.30;99.90;;;;;;5069210;28;20047;-50
2022/02/26 04:51:33;;;;;;;20.55;3.95;;;1.30;99.90;;;;;;5069613;28;20037;-53
2022/02/26 04:53:59;;;;;;;20.42;3.95;;;1.40;99.90;;;;;;5068867;28;20056;-52
2022/02/26 04:56:24;;;;;;;15.30;3.17;;;1.30;99.90;;;;;;5069496;28;20514;-54
2022/02/26 04:58:50;;;;;;;13.77;3.78;;;1.30;99.90;;;;;;5069041;28;20032;-50
2022/02/26 05:01:15;;;;;;;21.90;3.72;;;1.30;99.90;;;;;;5068796;28;20038;-55
2022/02/26 05:03:43;;;;;;;22.27;3.78;;;1.30;99.90;;;;;;5068372;28;20020;-50
2022/02/26 05:06:09;;;;;;;20.00;4.25;;;1.20;99.90;;;;;;5068738;28;20075;-50
2022/02/26 05:08:34;;;;;;;14.00;3.50;;;1.20;99.90;;;;;;5069017;28;20028;-53
2022/02/26 05:11:00;;;;;;;16.95;3.33;;;1.20;99.90;;;;;;5069194;28;20438;-52
2022/02/26 05:13:26;;;;;;;12.88;3.53;;;1.20;99.90;;;;;;5068910;28;20028;-55
2022/02/26 05:15:51;;;;;;;14.52;3.88;;;1.10;99.90;;;;;;5068692;28;20017;-53
2022/02/26 05:18:17;;;;;;;13.20;3.25;;;1.10;99.90;;;;;;5069139;28;20029;-53
2022/02/26 05:20:42;;;;;;;21.25;3.40;;;1.00;99.90;;;;;;5068989;28;20029;-50
2022/02/26 05:23:08;;;;;;;14.82;3.20;;;1.00;99.90;;;;;;5068503;28;20067;-53
2022/02/26 05:25:34;;;;;;;11.60;2.97;;;0.90;99.90;;;;;;5069464;28;20388;-55
2022/02/26 05:27:59;;;;;;;11.77;2.65;;;0.90;99.90;;;;;;5069215;28;20037;-53
2022/02/26 05:30:25;;;;;;;10.15;2.83;;;0.90;99.90;;;;;;5068931;28;20029;-53
2022/02/26 05:32:51;;;;;;;11.75;2.90;;;0.80;99.90;;;;;;5068348;28;20471;-53
2022/02/26 05:35:16;;;;;;;8.48;2.45;;;0.80;99.90;;;;;;5068897;28;20024;-52
2022/02/26 05:37:42;;;;;;;11.65;2.72;;;0.70;99.90;;;;;;5072816;28;20060;-52
2022/02/26 05:40:08;;;;;;;12.77;3.10;;;0.70;99.90;;;;;;5072788;28;20495;-50
2022/02/26 05:42:34;;;;;;;14.30;2.47;;;0.60;99.90;;;;;;5072250;28;20029;-53
2022/02/26 05:45:00;;;;;;;10.65;2.58;;;0.60;99.90;;;;;;5054291;28;20035;-55
2022/02/26 05:47:25;;;;;;;10.65;2.83;;;0.60;99.90;;;;;;5072713;28;20036;-53
2022/02/26 05:49:51;;;;;;;12.25;4.00;;;0.60;99.90;;;;;;5072680;28;20480;-53
2022/02/26 05:52:16;;;;;;;18.52;4.05;;;0.50;99.90;;;;;;5071635;28;20050;-52
2022/02/26 05:54:42;;;;;;;14.10;3.10;;;0.40;99.90;;;;;;5072188;28;20028;-52
2022/02/26 05:57:08;;;;;;;16.00;2.92;;;0.40;99.90;;;;;;5072282;28;20028;-50
2022/02/26 05:59:34;;;;;;;15.63;4.15;;;0.40;99.90;;;;;;5053978;28;20037;-52
2022/02/26 06:01:59;;;;;;;13.23;3.40;;;0.40;99.90;;;;;;5071967;28;20143;-52
2022/02/26 06:04:25;;;;;;;11.23;3.03;;;0.30;99.90;;;;;;5072041;28;20508;-53
2022/02/26 06:06:50;;;;;;;9.68;2.90;;;0.30;99.90;;;;;;5072244;28;20028;-53
2022/02/26 06:09:16;;;;;;;14.43;3.00;;;0.30;99.90;;;;;;5071853;28;20032;-51
2022/02/26 06:11:42;;;;;;;8.35;2.55;;;0.20;99.90;;;;;;5072341;28;20094;-52
2022/02/26 06:14:07;;;;;;;13.35;3.30;;;0.20;99.90;;;;;;5071461;28;20060;-50
2022/02/26 06:16:33;;;;;;;11.98;4.10;;;0.10;99.90;;;;;;5053581;28;20036;-54
2022/02/26 06:18:59;;;;;;;10.95;3.13;;;0.10;99.90;;;;;;5053878;28;20036;-53
2022/02/26 06:21:24;;;;;;;17.38;3.65;;;0.10;99.90;;;;;;5071709;28;20036;-52
2022/02/26 06:23:50;;;;;;;11.75;2.97;;;0.10;99.90;;;;;;5071963;28;20432;-53
2022/02/26 06:26:15;;;;;;;10.70;2.85;;;0.00;99.90;;;;;;5071548;28;20016;-52
2022/02/26 06:28:41;;;;;;;16.73;3.63;;;0.00;99.90;;;;;;5071885;28;20098;-50
2022/02/26 06:31:06;;;;;;;14.52;4.15;;;0.00;99.90;;;;;;5071624;28;20771;-51
2022/02/26 06:33:32;;;;;;;13.95;3.70;;;0.00;99.90;;;;;;5070572;28;20039;-52
2022/02/26 06:35:58;;;;;;;7.57;2.60;;;-0.10;99.90;;;;;;5060210;28;20036;-52
2022/02/26 06:38:23;;;;;;;14.68;3.85;;;-0.10;99.90;;;;;;5071054;28;20032;-51
2022/02/26 06:40:49;;;;;;;10.30;3.47;;;-0.10;99.90;;;;;;5071698;28;20028;-55
2022/02/26 06:43:14;;;;;;;11.05;3.05;;;-0.10;99.90;;;;;;5071512;28;20055;-52
2022/02/26 06:45:40;;;;;;;8.98;2.83;;;-0.10;99.90;;;;;;5071094;28;20028;-52
2022/02/26 06:48:05;;;;;;;11.85;2.75;;;-0.10;99.90;;;;;;5070824;28;20039;-52
2022/02/26 06:50:31;;;;;;;10.48;2.88;;;-0.10;99.90;;;;;;5071063;28;20448;-52
2022/02/26 06:52:57;;;;;;;11.95;2.88;;;-0.10;99.90;;;;;;5070902;28;20032;-51
2022/02/26 06:55:23;;;;;;;22.67;5.03;;;-0.10;99.90;;;;;;5070796;28;20024;-52
2022/02/26 06:57:49;;;;;;;12.00;3.30;;;-0.10;99.90;;;;;;5053396;28;20086;-53
2022/02/26 07:00:15;;;;;;;13.55;3.47;;;-0.10;99.90;;;;;;5070844;28;20040;-54
2022/02/26 07:02:41;;;;;;;7.57;2.65;;;-0.10;99.90;;;;;;5069726;28;20017;-55
2022/02/26 07:05:07;;;;;;;13.18;3.55;;;-0.10;99.90;;;;;;5070957;28;20037;-52
2022/02/26 07:07:33;;;;;;;14.88;3.95;;;-0.10;99.90;;;;;;5070725;28;20074;-54
2022/02/26 07:09:58;;;;;;;8.65;2.42;;;-0.10;99.90;;;;;;5070982;28;20029;-52
2022/02/26 07:12:24;;;;;;;13.98;3.05;;;-0.10;99.90;;;;;;5052568;28;20036;-55
2022/02/26 07:14:49;;;;;;;9.57;2.78;;;-0.10;99.90;;;;;;5070713;28;20476;-49
2022/02/26 07:17:16;;;;;;;14.27;3.72;;;-0.10;99.90;;;;;;5070644;28;20070;-56
2022/02/26 07:19:42;;;;;;;15.15;3.50;;;-0.10;99.90;;;;;;5070496;28;20112;-54
2022/02/26 07:22:08;;;;;;;9.75;3.30;;;-0.10;99.90;;;;;;5070691;28;20036;-52
2022/02/26 07:24:33;;;;;;;16.27;3.63;;;0.00;99.90;;;;;;5071046;28;20124;-55
2022/02/26 07:26:59;;;;;;;9.88;2.92;;;0.00;99.90;;;;;;5070256;28;20067;-54
2022/02/26 07:29:25;;;;;;;20.15;4.22;;;0.00;99.90;;;;;;5069833;28;20511;-52
2022/02/26 07:31:50;;;;;;;14.38;4.28;;;0.10;99.90;;;;;;5070660;28;20084;-54
2022/02/26 07:34:16;;;;;;;25.25;6.03;;;0.10;99.90;;;;;;5070443;28;20028;-55
2022/02/26 07:36:42;;;;;;;26.70;6.90;;;0.20;99.90;;;;;;5070255;28;20073;-51
2022/02/26 07:39:07;;;;;;;23.35;4.55;;;0.40;99.90;;;;;;5070471;28;20040;-53
2022/02/26 07:41:33;;;;;;;16.48;4.43;;;0.50;99.90;;;;;;5052480;28;20618;-52
2022/02/26 07:43:59;;;;;;;12.43;4.10;;;0.60;99.90;;;;;;5070154;28;20028;-53
2022/02/26 07:46:25;;;;;;;11.73;3.15;;;0.60;99.90;;;;;;5070160;28;20021;-53
2022/02/26 07:48:50;;;;;;;20.50;4.30;;;0.70;99.90;;;;;;5070380;28;20024;-54
2022/02/26 07:51:16;;;;;;;14.60;4.63;;;0.80;99.90;;;;;;5070037;28;20420;-51
2022/02/26 07:53:42;;;;;;;17.27;3.42;;;0.90;99.90;;;;;;5070092;28;20082;-51
2022/02/26 07:56:09;;;;;;;16.42;3.67;;;1.00;99.90;;;;;;5070021;28;20036;-52
2022/02/26 07:58:35;;;;;;;19.60;4.30;;;1.20;99.90;;;;;;5069335;28;20480;-51
2022/02/26 08:01:00;;;;;;;18.30;4.38;;;1.30;99.90;;;;;;5070216;28;20075;-51
2022/02/26 08:03:26;;;;;;;31.65;4.38;;;1.40;99.90;;;;;;5070112;28;20025;-54
2022/02/26 08:05:52;;;;;;;23.98;4.43;;;1.50;99.90;;;;;;5068889;28;20075;-52
2022/02/26 08:08:18;;;;;;;21.48;4.70;;;1.70;99.90;;;;;;5051835;28;20059;-51
2022/02/26 08:10:44;;;;;;;19.33;4.70;;;1.80;99.90;;;;;;5069083;28;20078;-53
2022/02/26 08:13:09;;;;;;;23.00;4.80;;;1.90;99.90;;;;;;5051360;28;20067;-52
2022/02/26 08:15:35;;;;;;;16.85;4.88;;;2.00;99.90;;;;;;5069480;28;20033;-52
2022/02/26 08:18:00;;;;;;;17.30;4.75;;;2.10;99.90;;;;;;5069673;28;20472;-53
2022/02/26 08:20:26;;;;;;;17.33;3.72;;;2.20;99.90;;;;;;5069216;28;20058;-53
2022/02/26 08:22:56;;;;;;;24.13;4.75;;;2.30;99.90;;;;;;5069160;28;20043;-51
2022/02/26 08:25:22;;;;;;;14.98;3.33;;;2.50;99.90;;;;;;5068948;28;20639;-52
2022/02/26 08:27:48;;;;;;;18.75;4.68;;;2.60;99.90;;;;;;5068967;28;20128;-53
2022/02/26 08:30:16;;;;;;;16.00;4.57;;;2.80;99.90;;;;;;5083074;28;20491;-55
2022/02/26 08:32:43;;;;;;;23.33;4.32;;;2.90;99.90;;;;;;5088136;28;20032;-52
2022/02/26 08:35:09;;;;;;;21.25;5.15;;;3.10;99.90;;;;;;5068975;28;20029;-55
2022/02/26 08:37:39;;;;;;;20.75;3.92;;;3.20;99.90;;;;;;5068639;28;20400;-51
2022/02/26 08:40:07;;;;;;;31.25;5.10;;;3.30;99.90;;;;;;5069535;28;20028;-52
2022/02/26 08:42:33;;;;;;;24.58;4.93;;;3.50;99.90;;;;;;5069053;28;20115;-54
2022/02/26 08:45:02;;;;;;;20.90;3.63;;;3.60;99.90;;;;;;5069323;28;20112;-54
2022/02/26 08:47:31;;;;;;;18.50;4.25;;;3.70;99.90;;;;;;5068776;28;20024;-54
2022/02/26 08:49:58;;;;;;;19.70;5.43;;;3.90;99.90;;;;;;5069266;28;20029;-56
2022/02/26 08:52:24;;;;;;;24.30;4.22;;;4.00;99.90;;;;;;5068516;28;20024;-53
2022/02/26 08:54:50;;;;;;;16.98;3.75;;;4.10;99.90;;;;;;5069184;28;20116;-52
2022/02/26 08:57:16;;;;;;;19.08;4.28;;;4.20;99.90;;;;;;5069432;28;20103;-54
2022/02/26 08:59:41;;;;;;;25.38;3.72;;;4.30;99.90;;;;;;5069290;28;20052;-50
2022/02/26 09:02:08;;;;;;;16.60;3.25;;;4.50;99.90;;;;;;5068851;28;20186;-56
2022/02/26 09:04:34;;;;;;;10.27;3.40;;;4.60;99.90;;;;;;5069033;28;20086;-55
2022/02/26 09:06:59;;;;;;;14.10;4.10;;;4.70;99.90;;;;;;5069377;28;20103;-53
2022/02/26 09:09:25;;;;;;;20.35;3.60;;;4.70;99.90;;;;;;5051653;28;20170;-54
2022/02/26 09:11:50;;;;;;;17.75;3.58;;;4.80;99.90;;;;;;5073253;28;20701;-56
2022/02/26 09:14:16;;;;;;;17.17;3.67;;;4.90;99.90;;;;;;5073226;28;20025;-54
2022/02/26 09:16:42;;;;;;;16.13;4.03;;;4.90;99.90;;;;;;5073436;28;20435;-51
2022/02/26 09:19:07;;;;;;;19.30;4.07;;;5.00;99.90;;;;;;5073586;28;20110;-56
2022/02/26 09:21:33;;;;;;;15.05;3.38;;;5.00;99.90;;;;;;5072895;28;20036;-51
2022/02/26 09:23:59;;;;;;;13.90;4.03;;;5.20;99.90;;;;;;5072551;28;20037;-52
2022/02/26 09:26:24;;;;;;;21.15;4.07;;;5.30;99.90;;;;;;5055092;28;20020;-55
2022/02/26 09:28:50;;;;;;;10.82;3.15;;;5.30;99.90;;;;;;5072991;28;20118;-55
2022/02/26 09:31:16;;;;;;;14.18;4.18;;;5.40;99.90;;;;;;5054921;28;20035;-55
2022/02/26 09:33:42;;;;;;;18.25;3.60;;;5.40;99.90;;;;;;5072489;28;20083;-52
2022/02/26 09:36:09;;;;;;;15.60;3.83;;;5.60;99.90;;;;;;5072664;28;20029;-56
2022/02/26 09:38:37;;;;;;;14.02;3.03;;;5.70;99.90;;;;;;5072490;28;20029;-54
2022/02/26 09:41:03;;;;;;;13.35;3.55;;;5.80;99.90;;;;;;5054978;28;20028;-53
2022/02/26 09:43:31;;;;;;;11.30;3.15;;;6.00;99.90;;;;;;5072048;28;20025;-55
2022/02/26 09:45:57;;;;;;;19.20;3.60;;;6.10;99.90;;;;;;5072647;28;20021;-58
2022/02/26 09:48:23;;;;;;;14.43;3.20;;;6.20;99.90;;;;;;5072354;28;20040;-57
2022/02/26 09:50:49;;;;;;;14.85;3.30;;;6.30;99.90;;;;;;5071963;28;20033;-52
2022/02/26 09:53:16;;;;;;;10.52;3.25;;;6.40;99.90;;;;;;5072610;28;20028;-56
2022/02/26 09:55:46;;;;;;;11.73;2.83;;;6.50;99.90;;;;;;5072484;28;20024;-56
2022/02/26 09:58:16;;;;;;;12.82;3.40;;;6.60;99.90;;;;;;5072752;28;20020;-54
2022/02/26 10:00:46;;;;;;;8.48;2.47;;;6.70;99.90;;;;;;5072577;28;20066;-52
2022/02/26 10:03:34;;;;;;;17.13;2.60;;;6.80;99.90;;;;;;5072275;28;20103;-57
2022/02/26 10:06:18;;;;;;;8.98;2.92;;;6.80;99.90;;;;;;5069882;28;20035;-54
2022/02/26 10:08:45;;;;;;;7.85;2.72;;;7.00;99.90;;;;;;5072218;28;20537;-57
2022/02/26 10:11:34;;;;;;;6.78;2.35;;;7.00;99.90;;;;;;5072433;28;20383;-57
2022/02/26 10:14:04;;;;;;;13.10;2.13;;;7.10;99.90;;;;;;5071930;28;20462;-53
2022/02/26 10:16:51;;;;;;;15.55;2.90;;;7.00;99.90;;;;;;5072246;28;20048;-54
2022/02/26 10:19:21;;;;;;;13.38;2.33;;;7.10;99.90;;;;;;5071937;28;20419;-54
2022/02/26 10:21:46;;;;;;;8.75;1.90;;;7.10;99.90;;;;;;5071043;28;20392;-55
2022/02/26 10:24:12;;;;;;;6.07;1.98;;;7.20;99.90;;;;;;5071444;28;20035;-55
2022/02/26 10:26:39;;;;;;;5.93;1.52;;;7.30;99.90;;;;;;5071869;28;20036;-53
2022/02/26 10:29:10;;;;;;;5.07;1.70;;;7.40;99.90;;;;;;5071903;28;20146;-54
2022/02/26 10:31:42;;;;;;;4.47;1.58;;;7.50;99.90;;;;;;5071572;28;20526;-55
2022/02/26 10:34:29;;;;;;;9.30;1.88;;;7.50;99.90;;;;;;5071556;28;20143;-54
2022/02/26 10:36:55;;;;;;;;;;;7.50;99.90;;;;;;5072246;28;20054;-54
2022/02/26 10:39:28;;;;;;;8.82;2.13;;;7.50;99.90;;;;;;5071555;28;19915;-53
2022/02/26 10:41:54;;;;;;;5.50;1.83;;;7.50;99.90;;;;;;5071424;28;20041;-56
2022/02/26 10:44:20;;;;;;;7.57;1.40;;;7.60;99.90;;;;;;5071234;28;20416;-52
2022/02/26 10:46:46;;;;;;;6.40;1.42;;;7.60;99.90;;;;;;5071795;28;20705;-52
2022/02/26 10:49:14;;;;;;;7.10;1.73;;;7.80;99.90;;;;;;5071188;28;20040;-54
2022/02/26 10:51:42;;;;;;;7.25;1.58;;;7.80;99.90;;;;;;5071613;28;20035;-56
2022/02/26 10:54:10;;;;;;;5.20;1.55;;;7.90;99.90;;;;;;5071147;28;20115;-54
2022/02/26 10:56:39;;;;;;;8.38;1.77;;;8.00;99.90;;;;;;5071203;28;20025;-56
2022/02/26 10:59:08;;;;;;;4.93;1.38;;;8.00;99.90;;;;;;5071344;28;20051;-56
2022/02/26 11:01:34;;;;;;;6.07;1.15;;;8.00;99.90;;;;;;5071579;28;20103;-55
2022/02/26 11:04:03;;;;;;;2.20;1.27;;;8.10;99.90;;;;;;5070699;28;20033;-53
2022/02/26 11:06:30;;;;;;;3.55;1.52;;;8.20;99.90;;;;;;5071075;28;20032;-56
2022/02/26 11:08:56;;;;;;;3.28;1.05;;;8.20;99.90;;;;;;5070988;28;20055;-52
2022/02/26 11:11:23;;;;;;;6.70;1.85;;;8.20;99.90;;;;;;5071316;28;20037;-55
2022/02/26 11:13:53;;;;;;;7.00;1.20;;;8.20;99.90;;;;;;5071263;28;20028;-56
2022/02/26 11:16:21;;;;;;;7.45;1.25;;;8.10;99.90;;;;;;5069858;28;20039;-56
2022/02/26 11:18:49;;;;;;;6.70;1.13;;;8.10;99.90;;;;;;5052858;28;20039;-53
2022/02/26 11:21:17;;;;;;;5.10;1.35;;;8.10;99.90;;;;;;5070219;28;20094;-54
2022/02/26 11:23:45;;;;;;;4.80;1.20;;;8.10;99.90;;;;;;5070241;28;20032;-57
2022/02/26 11:26:11;;;;;;;7.15;1.20;;;8.10;99.90;;;;;;5070897;28;20027;-57
2022/02/26 11:28:41;;;;;;;6.80;1.42;;;8.20;99.90;;;;;;5071002;28;20032;-51
2022/02/26 11:31:12;;;;;;;7.10;1.40;;;8.10;99.90;;;;;;5070851;28;20528;-56
2022/02/26 11:33:38;;;;;;;3.28;1.42;;;8.20;99.90;;;;;;5070410;28;20474;-56
2022/02/26 11:36:05;;;;;;;7.13;1.67;;;8.20;99.90;;;;;;5051943;28;20059;-56
2022/02/26 11:38:38;;;;;;;2.97;1.15;;;8.20;99.90;;;;;;5070832;28;20103;-54
2022/02/26 11:41:22;;;;;;;5.30;1.80;;;8.10;99.90;;;;;;5052674;28;20028;-56
2022/02/26 11:43:53;;;;;;;2.83;0.90;;;8.00;99.90;;;;;;5070650;28;20120;-56
2022/02/26 11:46:29;;;;;;;8.02;1.63;;;8.10;99.90;;;;;;5071398;28;20480;-55
2022/02/26 11:48:59;;;;;;;4.78;1.60;;;8.10;99.90;;;;;;5071618;28;20031;-54
2022/02/26 11:51:35;;;;;;;5.40;1.67;;;8.20;99.90;;;;;;5071334;28;20042;-57
2022/02/26 11:54:04;;;;;;;3.50;1.38;;;8.20;99.90;;;;;;5070779;28;20025;-56
2022/02/26 11:56:49;;;;;;;10.85;2.15;;;8.20;99.90;;;;;;5070029;28;20035;-56
2022/02/26 11:59:14;;;;;;;4.38;1.45;;;8.20;99.90;;;;;;5070225;28;20024;-53
2022/02/26 12:02:04;;;;;;;8.07;1.70;;;8.20;99.90;;;;;;5069927;28;20086;-57
2022/02/26 12:04:56;;;;;;;5.22;1.52;;;8.20;99.90;;;;;;5070310;28;20017;-51
2022/02/26 12:07:30;;;;;;;3.65;0.70;;;8.20;99.90;;;;;;5070045;28;20024;-54
2022/02/26 12:10:07;;;;;;;9.93;2.35;;;8.10;99.90;;;;;;5069796;28;20103;-56
2022/02/26 12:12:41;;;;;;;7.15;2.17;;;8.20;99.90;;;;;;5069620;28;20121;-57
2022/02/26 12:15:19;;;;;;;6.15;1.50;;;8.30;99.90;;;;;;5069890;28;20024;-53
2022/02/26 12:17:53;;;;;;;10.55;2.08;;;8.20;99.90;;;;;;5069628;28;20104;-54
2022/02/26 12:20:21;;;;;;;4.13;0.95;;;8.20;99.90;;;;;;5069792;28;20439;-54
2022/02/26 12:22:49;;;;;;;2.35;1.10;;;8.20;99.90;;;;;;5069087;28;20028;-55
2022/02/26 12:25:16;;;;;;;4.03;1.23;;;8.30;99.90;;;;;;5069865;28;20488;-53
2022/02/26 12:27:43;;;;;;;7.07;1.88;;;8.30;99.90;;;;;;5069498;28;20024;-56
2022/02/26 12:30:15;;;;;;;4.57;0.90;;;8.30;99.90;;;;;;5069943;28;20369;-55
2022/02/26 12:33:02;;;;;;;4.82;1.50;;;8.30;99.90;;;;;;5069693;28;20017;-56
2022/02/26 12:35:33;;;;;;;7.28;1.42;;;8.30;99.90;;;;;;5068449;28;20043;-54
2022/02/26 12:37:59;;;;;;;4.72;1.50;;;8.30;99.90;;;;;;5069496;28;20025;-53
2022/02/26 12:40:31;;;;;;;7.88;1.75;;;8.30;99.90;;;;;;5060421;28;20029;-57
2022/02/26 12:43:07;;;;;;;7.63;1.88;;;8.30;99.90;;;;;;5048775;28;20114;-57
2022/02/26 12:45:47;;;;;;;7.30;1.05;;;8.30;99.90;;;;;;5054078;28;20099;-54
2022/02/26 12:48:13;;;;;;;5.43;1.30;;;8.40;99.90;;;;;;5067177;28;20060;-54